Terminal Aerodrome Forecast
Issued by NWS

Home | Current Version | Previous Version | Text Only | Print | Product List | Glossary On
Versions: 1 2 3 4 5 6 7 8 9 10 11 12 13 14 15
718
FTUS43 KABR 231122
TAFPIR
TAF
KPIR 231122Z 2312/2412 12009KT P6SM FEW200
     FM241000 07006KT P6SM FEW250=

USA.gov is the U.S. government's official web portal to all federal, state and local government web resources and services.